Time;durP1;ratioP1;P1;durP2;ratioP2;P2;SDS_P1;SDS_P2;PMS_P1;PMS_P2;Temp;Humidity;BMP_temperature;BMP_pressure;BME280_temperature;BME280_humidity;BME280_pressure;Samples;Min_cycle;Max_cycle;Signal;HPM_P1;HPM_P2
2021/05/12 00:02:12;;;;;;;0.63;0.30;;;;;;;;;;5066075;28;20024;-50
2021/05/12 00:04:37;;;;;;;0.65;0.20;;;;;;;;;;5062403;28;20032;-53
2021/05/12 00:07:02;;;;;;;1.75;0.30;;;;;;;;;;5061993;28;20037;-46
2021/05/12 00:09:28;;;;;;;5.05;0.75;;;;;;;;;;5060645;28;20163;-49
2021/05/12 00:11:53;;;;;;;0.73;0.30;;;;;;;;;;5061583;28;20035;-48
2021/05/12 00:14:19;;;;;;;2.42;0.73;;;;;;;;;;5050069;28;20393;-52
2021/05/12 00:16:44;;;;;;;1.67;0.70;;;;;;;;;;5064897;28;20056;-48
2021/05/12 00:19:10;;;;;;;1.75;0.57;;;;;;;;;;5072155;28;20068;-47
2021/05/12 00:21:52;;;;;;;1.13;0.77;;;;;;;;;;5069014;28;20564;-50
2021/05/12 00:24:17;;;;;;;0.40;0.20;;;;;;;;;;5055329;28;20157;-49
2021/05/12 00:26:44;;;;;;;0.60;0.17;;;;;;;;;;5073425;28;20506;-49
2021/05/12 00:29:13;;;;;;;0.57;0.40;;;;;;;;;;5065565;28;20549;-47
2021/05/12 00:31:39;;;;;;;0.52;0.28;;;;;;;;;;5072754;28;20040;-46
2021/05/12 00:34:06;;;;;;;1.00;0.30;;;;;;;;;;5075477;28;20033;-50
2021/05/12 00:36:31;;;;;;;0.47;0.30;;;;;;;;;;5073058;28;20072;-49
2021/05/12 00:38:57;;;;;;;0.10;0.10;;;;;;;;;;5051066;28;20079;-51
2021/05/12 00:41:23;;;;;;;3.40;0.93;;;;;;;;;;5042080;28;20037;-46
2021/05/12 00:43:48;;;;;;;2.85;0.98;;;;;;;;;;5077165;28;20032;-50
2021/05/12 00:46:14;;;;;;;2.63;1.15;;;;;;;;;;5066666;28;20056;-47
2021/05/12 00:48:40;;;;;;;1.35;0.95;;;;;;;;;;5066677;28;20054;-48
2021/05/12 00:51:05;;;;;;;1.08;0.60;;;;;;;;;;5064762;28;20494;-50
2021/05/12 00:53:31;;;;;;;0.98;0.45;;;;;;;;;;5067190;28;20043;-50
2021/05/12 00:55:57;;;;;;;1.27;0.90;;;;;;;;;;5066982;28;20040;-49
2021/05/12 00:58:22;;;;;;;3.42;0.70;;;;;;;;;;5066316;28;20036;-52
2021/05/12 01:00:47;;;;;;;1.45;0.75;;;;;;;;;;5070676;28;20024;-53
2021/05/12 01:03:13;;;;;;;0.55;0.40;;;;;;;;;;5071120;28;20784;-49
2021/05/12 01:05:57;;;;;;;2.63;0.73;;;;;;;;;;5074465;28;20478;-50
2021/05/12 01:08:23;;;;;;;2.42;0.68;;;;;;;;;;5052394;28;20032;-52
2021/05/12 01:10:48;;;;;;;1.15;0.68;;;;;;;;;;5074699;28;20093;-47
2021/05/12 01:13:14;;;;;;;0.35;0.22;;;;;;;;;;5048269;28;20071;-47
2021/05/12 01:15:43;;;;;;;3.72;0.73;;;;;;;;;;5068345;28;20040;-50
2021/05/12 01:18:08;;;;;;;0.82;0.40;;;;;;;;;;5060190;28;20068;-51
2021/05/12 01:20:45;;;;;;;0.98;0.20;;;;;;;;;;5056553;28;20067;-48
2021/05/12 01:23:10;;;;;;;1.15;0.32;;;;;;;;;;5068801;28;20034;-50
2021/05/12 01:25:35;;;;;;;0.52;0.28;;;;;;;;;;5070691;28;20029;-49
2021/05/12 01:28:01;;;;;;;1.02;0.57;;;;;;;;;;5062963;28;20045;-47
2021/05/12 01:30:26;;;;;;;0.45;0.28;;;;;;;;;;5066150;28;20081;-49
2021/05/12 01:32:51;;;;;;;0.90;0.47;;;;;;;;;;5065075;28;20072;-48
2021/05/12 01:35:17;;;;;;;0.43;0.40;;;;;;;;;;5066555;28;20036;-48
2021/05/12 01:37:42;;;;;;;2.83;0.30;;;;;;;;;;5066469;28;20056;-50
2021/05/12 01:40:08;;;;;;;0.40;0.30;;;;;;;;;;5047203;28;20023;-53
2021/05/12 01:42:34;;;;;;;0.60;0.30;;;;;;;;;;5066288;28;20072;-52
2021/05/12 01:45:17;;;;;;;0.30;0.20;;;;;;;;;;5064469;28;20021;-47
2021/05/12 01:47:43;;;;;;;2.17;0.10;;;;;;;;;;5064229;28;20037;-49
2021/05/12 01:50:10;;;;;;;0.03;0.00;;;;;;;;;;5029218;28;20036;-45
2021/05/12 01:52:39;;;;;;;0.30;0.30;;;;;;;;;;5062374;28;20053;-51
2021/05/12 01:55:05;;;;;;;0.08;0.08;;;;;;;;;;5045887;28;20294;-48
2021/05/12 01:57:31;;;;;;;1.30;0.30;;;;;;;;;;5067488;28;20039;-48
2021/05/12 01:59:56;;;;;;;0.20;0.10;;;;;;;;;;5069371;28;20116;-45
2021/05/12 02:02:21;;;;;;;0.75;0.30;;;;;;;;;;5068352;28;20142;-50
2021/05/12 02:04:47;;;;;;;6.38;0.35;;;;;;;;;;5065497;28;20108;-49
2021/05/12 02:07:13;;;;;;;0.73;0.40;;;;;;;;;;5061034;28;20500;-48
2021/05/12 02:09:38;;;;;;;1.35;0.50;;;;;;;;;;5062712;28;20063;-46
2021/05/12 02:12:04;;;;;;;0.57;0.32;;;;;;;;;;5062552;28;20060;-47
2021/05/12 02:14:29;;;;;;;0.45;0.30;;;;;;;;;;5064994;28;20029;-48
2021/05/12 02:16:55;;;;;;;1.55;0.43;;;;;;;;;;5068564;28;20048;-49
2021/05/12 02:19:20;;;;;;;0.77;0.20;;;;;;;;;;5063854;28;20043;-49
2021/05/12 02:21:45;;;;;;;0.55;0.52;;;;;;;;;;5067962;28;20062;-49
2021/05/12 02:24:11;;;;;;;2.47;0.25;;;;;;;;;;5066229;28;20041;-49
2021/05/12 02:26:37;;;;;;;0.10;0.10;;;;;;;;;;5067810;28;20562;-46
2021/05/12 02:29:02;;;;;;;0.32;0.20;;;;;;;;;;5063786;28;20581;-50
2021/05/12 02:31:28;;;;;;;0.28;0.28;;;;;;;;;;5065231;28;20508;-51
2021/05/12 02:33:53;;;;;;;0.95;0.35;;;;;;;;;;5054982;28;20059;-48
2021/05/12 02:36:18;;;;;;;0.82;0.75;;;;;;;;;;5070434;28;20037;-50
2021/05/12 02:38:44;;;;;;;0.65;0.20;;;;;;;;;;5068636;28;20082;-51
2021/05/12 02:41:09;;;;;;;0.32;0.22;;;;;;;;;;5064852;28;20030;-48
2021/05/12 02:43:34;;;;;;;0.20;0.20;;;;;;;;;;5066862;28;20058;-48
2021/05/12 02:46:00;;;;;;;0.98;0.68;;;;;;;;;;5058511;28;20025;-48
2021/05/12 02:48:25;;;;;;;2.50;0.75;;;;;;;;;;5063553;28;20044;-51
2021/05/12 02:50:50;;;;;;;1.08;0.43;;;;;;;;;;5062469;28;20132;-50
2021/05/12 02:53:16;;;;;;;17.80;1.98;;;;;;;;;;5070117;28;20091;-52
2021/05/12 02:55:41;;;;;;;0.85;0.45;;;;;;;;;;5067249;28;20408;-52
2021/05/12 02:58:08;;;;;;;2.38;0.60;;;;;;;;;;5052055;28;20049;-48
2021/05/12 03:00:35;;;;;;;1.05;0.43;;;;;;;;;;5062612;28;20024;-52
2021/05/12 03:03:00;;;;;;;4.65;0.45;;;;;;;;;;5050300;28;20029;-52
2021/05/12 03:05:26;;;;;;;0.85;0.55;;;;;;;;;;5063952;28;20421;-52
2021/05/12 03:07:52;;;;;;;2.47;0.40;;;;;;;;;;5068060;28;20088;-50
2021/05/12 03:10:18;;;;;;;0.28;0.10;;;;;;;;;;5072020;28;20055;-50
2021/05/12 03:12:44;;;;;;;2.42;0.77;;;;;;;;;;5060401;28;21321;-51
2021/05/12 03:15:11;;;;;;;0.35;0.35;;;;;;;;;;5072359;28;20031;-49
2021/05/12 03:17:36;;;;;;;1.50;0.30;;;;;;;;;;5070050;28;20036;-49
2021/05/12 03:20:03;;;;;;;0.00;0.00;;;;;;;;;;5074253;28;20492;-48
2021/05/12 03:22:28;;;;;;;0.20;0.20;;;;;;;;;;5068215;28;20044;-49
2021/05/12 03:24:53;;;;;;;4.28;0.25;;;;;;;;;;5068051;28;20516;-47
2021/05/12 03:27:19;;;;;;;0.85;0.63;;;;;;;;;;5065536;28;20459;-49
2021/05/12 03:29:44;;;;;;;1.33;0.82;;;;;;;;;;5065128;28;20032;-46
2021/05/12 03:32:10;;;;;;;0.70;0.35;;;;;;;;;;5066380;28;20040;-49
2021/05/12 03:34:35;;;;;;;1.40;0.57;;;;;;;;;;5059848;28;20033;-46
2021/05/12 03:37:01;;;;;;;0.45;0.45;;;;;;;;;;5060927;28;20036;-49
2021/05/12 03:39:28;;;;;;;0.85;0.47;;;;;;;;;;5064025;28;20021;-48
2021/05/12 03:41:53;;;;;;;0.52;0.30;;;;;;;;;;5070251;28;20395;-47
2021/05/12 03:44:18;;;;;;;1.60;0.35;;;;;;;;;;5066961;28;20486;-49
2021/05/12 03:46:43;;;;;;;3.13;0.47;;;;;;;;;;5050541;28;20385;-46
2021/05/12 03:49:09;;;;;;;1.27;0.40;;;;;;;;;;5068454;28;20047;-50
2021/05/12 03:51:34;;;;;;;2.88;0.63;;;;;;;;;;5063928;28;20033;-47
2021/05/12 03:53:59;;;;;;;13.80;1.17;;;;;;;;;;5065090;28;20048;-51
2021/05/12 03:56:25;;;;;;;0.30;0.22;;;;;;;;;;5069289;28;20523;-47
2021/05/12 03:58:50;;;;;;;1.40;0.80;;;;;;;;;;5063284;28;20056;-50
2021/05/12 04:01:16;;;;;;;3.53;0.80;;;;;;;;;;5067799;28;20452;-53
2021/05/12 04:03:41;;;;;;;0.43;0.40;;;;;;;;;;5046487;28;20039;-50
2021/05/12 04:06:06;;;;;;;1.42;0.80;;;;;;;;;;5068353;28;20107;-50
2021/05/12 04:08:32;;;;;;;0.10;0.10;;;;;;;;;;5069184;28;20033;-51
2021/05/12 04:10:57;;;;;;;4.65;0.50;;;;;;;;;;5066579;28;20071;-50
2021/05/12 04:13:24;;;;;;;2.03;0.75;;;;;;;;;;5064051;28;20040;-50
2021/05/12 04:15:49;;;;;;;8.00;1.42;;;;;;;;;;5051606;28;20062;-52
2021/05/12 04:18:15;;;;;;;0.80;0.40;;;;;;;;;;5050212;28;20045;-48
2021/05/12 04:20:40;;;;;;;0.90;0.25;;;;;;;;;;5050944;28;20036;-48
2021/05/12 04:23:05;;;;;;;0.28;0.20;;;;;;;;;;5068985;28;20707;-50
2021/05/12 04:25:31;;;;;;;1.17;0.80;;;;;;;;;;5031117;28;20410;-47
2021/05/12 04:27:56;;;;;;;0.75;0.63;;;;;;;;;;5025467;28;20034;-49
2021/05/12 04:30:23;;;;;;;2.20;0.95;;;;;;;;;;5026000;28;20093;-48
2021/05/12 04:32:49;;;;;;;3.55;1.20;;;;;;;;;;5025451;28;20048;-46
2021/05/12 04:35:19;;;;;;;2.50;1.52;;;;;;;;;;5025201;28;20029;-50
2021/05/12 04:37:45;;;;;;;1.83;0.85;;;;;;;;;;5025865;28;20045;-50
2021/05/12 04:40:10;;;;;;;6.72;1.80;;;;;;;;;;5031793;28;20040;-48
2021/05/12 04:42:36;;;;;;;3.53;1.50;;;;;;;;;;5029665;28;20463;-47
2021/05/12 04:45:02;;;;;;;2.72;1.75;;;;;;;;;;5022349;28;20036;-49
2021/05/12 04:47:28;;;;;;;5.68;1.80;;;;;;;;;;5019994;28;20034;-48
2021/05/12 04:49:53;;;;;;;9.40;2.78;;;;;;;;;;5022426;28;20089;-48
2021/05/12 04:52:18;;;;;;;9.02;1.42;;;;;;;;;;5024989;28;20041;-47
2021/05/12 04:54:44;;;;;;;12.38;3.25;;;;;;;;;;5024653;28;20030;-47
2021/05/12 04:57:09;;;;;;;2.00;1.50;;;;;;;;;;5023291;28;20099;-48
2021/05/12 04:59:34;;;;;;;2.92;1.45;;;;;;;;;;5025422;28;20045;-48
2021/05/12 05:02:01;;;;;;;6.28;1.73;;;;;;;;;;5026497;28;20072;-48
2021/05/12 05:04:26;;;;;;;2.78;1.20;;;;;;;;;;5029026;28;20048;-48
2021/05/12 05:06:52;;;;;;;4.82;1.08;;;;;;;;;;5031452;28;20049;-49
2021/05/12 05:09:17;;;;;;;10.38;3.45;;;;;;;;;;5043188;28;20064;-52
2021/05/12 05:11:43;;;;;;;5.25;2.50;;;;;;;;;;5025083;28;20033;-51
2021/05/12 05:14:08;;;;;;;6.85;1.25;;;;;;;;;;5044206;28;20037;-47
2021/05/12 05:16:33;;;;;;;7.32;1.13;;;;;;;;;;5028418;28;20541;-47
2021/05/12 05:18:59;;;;;;;7.35;1.20;;;;;;;;;;5025778;28;20613;-51
2021/05/12 05:21:25;;;;;;;3.05;1.20;;;;;;;;;;5027670;28;20037;-46
2021/05/12 05:23:50;;;;;;;3.17;1.35;;;;;;;;;;5032489;28;20053;-47
2021/05/12 05:26:16;;;;;;;10.65;1.65;;;;;;;;;;5062257;28;20028;-46
2021/05/12 05:28:41;;;;;;;1.42;0.63;;;;;;;;;;5061870;28;20090;-45
2021/05/12 05:31:06;;;;;;;2.00;0.57;;;;;;;;;;5053303;28;20033;-47
2021/05/12 05:33:32;;;;;;;2.75;0.50;;;;;;;;;;5068266;28;20044;-48
2021/05/12 05:35:57;;;;;;;4.88;1.08;;;;;;;;;;5065542;28;20033;-47
2021/05/12 05:38:22;;;;;;;10.07;1.67;;;;;;;;;;5068497;28;20090;-46
2021/05/12 05:40:47;;;;;;;5.30;1.30;;;;;;;;;;5072353;28;20136;-47
2021/05/12 05:43:14;;;;;;;6.25;1.50;;;;;;;;;;5071345;28;20043;-45
2021/05/12 05:45:42;;;;;;;4.03;0.70;;;;;;;;;;5068802;28;20052;-46
2021/05/12 05:48:08;;;;;;;4.88;1.02;;;;;;;;;;5061990;28;20119;-45
2021/05/12 05:50:33;;;;;;;4.97;1.48;;;;;;;;;;5063442;28;20584;-44
2021/05/12 05:52:59;;;;;;;8.18;1.95;;;;;;;;;;5059635;28;20139;-47
2021/05/12 05:55:24;;;;;;;1.15;0.88;;;;;;;;;;5058817;28;20119;-45
2021/05/12 05:57:50;;;;;;;4.55;1.33;;;;;;;;;;5058399;28;20040;-45
2021/05/12 06:00:16;;;;;;;2.58;1.20;;;;;;;;;;5042086;28;20037;-46
2021/05/12 06:02:42;;;;;;;6.70;1.02;;;;;;;;;;5060931;28;20028;-48
2021/05/12 06:05:07;;;;;;;0.57;0.38;;;;;;;;;;5058444;28;20016;-47
2021/05/12 06:07:32;;;;;;;3.75;1.52;;;;;;;;;;5061368;28;20044;-44
2021/05/12 06:09:58;;;;;;;9.43;1.23;;;;;;;;;;5061470;28;20112;-45
2021/05/12 06:12:24;;;;;;;16.75;2.05;;;;;;;;;;5062027;28;20040;-45
2021/05/12 06:14:49;;;;;;;10.80;1.33;;;;;;;;;;5045388;28;20090;-46
2021/05/12 06:17:15;;;;;;;4.85;1.52;;;;;;;;;;5063291;28;20432;-46
2021/05/12 06:19:40;;;;;;;8.52;2.00;;;;;;;;;;5064316;28;20029;-44
2021/05/12 06:22:05;;;;;;;10.73;3.30;;;;;;;;;;5063474;28;20039;-47
2021/05/12 06:24:31;;;;;;;1.63;1.10;;;;;;;;;;5063642;28;20052;-44
2021/05/12 06:26:57;;;;;;;5.90;1.27;;;;;;;;;;5061908;28;20556;-45
2021/05/12 06:29:22;;;;;;;6.07;1.00;;;;;;;;;;5062843;28;20036;-46
2021/05/12 06:31:47;;;;;;;2.88;1.58;;;;;;;;;;5061303;28;20033;-49
2021/05/12 06:34:13;;;;;;;4.30;1.75;;;;;;;;;;5061919;28;20044;-49
2021/05/12 06:36:38;;;;;;;3.72;1.20;;;;;;;;;;5065627;28;20032;-48
2021/05/12 06:39:04;;;;;;;1.83;0.88;;;;;;;;;;5067042;28;20151;-45
2021/05/12 06:41:31;;;;;;;1.48;0.65;;;;;;;;;;5066320;28;20036;-46
2021/05/12 06:43:56;;;;;;;5.97;1.85;;;;;;;;;;5064069;28;20040;-48
2021/05/12 06:46:22;;;;;;;3.42;3.13;;;;;;;;;;5063283;28;20532;-50
2021/05/12 06:48:47;;;;;;;10.10;2.72;;;;;;;;;;5065982;28;20167;-49
2021/05/12 06:51:13;;;;;;;7.47;2.63;;;;;;;;;;5063195;28;20028;-46
2021/05/12 06:53:38;;;;;;;1.90;0.45;;;;;;;;;;5042419;28;20037;-47
2021/05/12 06:56:04;;;;;;;1.13;0.85;;;;;;;;;;5072615;28;20028;-45
2021/05/12 06:58:30;;;;;;;7.70;1.33;;;;;;;;;;5062195;28;20397;-46
2021/05/12 07:00:55;;;;;;;3.22;1.52;;;;;;;;;;5064751;28;20052;-45
2021/05/12 07:03:24;;;;;;;2.28;0.60;;;;;;;;;;5062620;28;20497;-45
2021/05/12 07:05:49;;;;;;;5.88;0.43;;;;;;;;;;5048803;28;20024;-47
2021/05/12 07:08:15;;;;;;;1.92;1.30;;;;;;;;;;5064363;28;20047;-45
2021/05/12 07:10:40;;;;;;;4.40;1.52;;;;;;;;;;5053384;28;20404;-45
2021/05/12 07:13:06;;;;;;;5.50;2.35;;;;;;;;;;5061732;28;20074;-47
2021/05/12 07:15:31;;;;;;;2.78;1.33;;;;;;;;;;5063805;28;20064;-44
2021/05/12 07:17:56;;;;;;;2.58;1.08;;;;;;;;;;5063318;28;20036;-46
2021/05/12 07:20:22;;;;;;;3.95;1.60;;;;;;;;;;5058411;28;20036;-49
2021/05/12 07:22:47;;;;;;;6.43;1.45;;;;;;;;;;5057828;28;20051;-40
2021/05/12 07:25:13;;;;;;;18.20;1.85;;;;;;;;;;5062481;28;20409;-42
2021/05/12 07:27:38;;;;;;;9.20;1.90;;;;;;;;;;5061213;28;20048;-39
2021/05/12 07:30:05;;;;;;;9.30;2.97;;;;;;;;;;5064601;28;20039;-39
2021/05/12 07:32:30;;;;;;;1.55;1.05;;;;;;;;;;5062240;28;20041;-40
2021/05/12 07:34:56;;;;;;;3.75;1.45;;;;;;;;;;5063784;28;20044;-42
2021/05/12 07:37:21;;;;;;;4.65;1.67;;;;;;;;;;5062182;28;20041;-40
2021/05/12 07:39:47;;;;;;;10.15;0.88;;;;;;;;;;5047384;28;20516;-40
2021/05/12 07:42:13;;;;;;;2.83;0.68;;;;;;;;;;5055180;28;20033;-42
2021/05/12 07:44:39;;;;;;;2.13;1.33;;;;;;;;;;5040295;28;20401;-44
2021/05/12 07:47:04;;;;;;;2.30;1.20;;;;;;;;;;5061167;28;20028;-42
2021/05/12 07:49:30;;;;;;;3.10;1.08;;;;;;;;;;5050944;28;20312;-40
2021/05/12 07:51:56;;;;;;;4.85;0.85;;;;;;;;;;5060812;28;20320;-39
2021/05/12 07:54:21;;;;;;;1.98;1.05;;;;;;;;;;5065352;28;20734;-40
2021/05/12 07:56:47;;;;;;;8.00;1.02;;;;;;;;;;5063962;28;20037;-41
2021/05/12 07:59:12;;;;;;;0.50;0.50;;;;;;;;;;5066140;28;20124;-41
2021/05/12 08:01:43;;;;;;;3.50;1.70;;;;;;;;;;5059649;28;20565;-41
2021/05/12 08:04:09;;;;;;;9.20;1.65;;;;;;;;;;5056996;28;20063;-40
2021/05/12 08:06:34;;;;;;;2.72;1.35;;;;;;;;;;5055006;28;20102;-39
2021/05/12 08:09:02;;;;;;;2.35;1.00;;;;;;;;;;5056282;28;20055;-43
2021/05/12 08:11:27;;;;;;;5.93;1.45;;;;;;;;;;5058625;28;20151;-44
2021/05/12 08:13:53;;;;;;;2.60;0.80;;;;;;;;;;5062008;28;20050;-40
2021/05/12 08:16:18;;;;;;;12.10;1.85;;;;;;;;;;5059242;28;20029;-40
2021/05/12 08:18:43;;;;;;;4.93;1.58;;;;;;;;;;5055755;28;20045;-39
2021/05/12 08:21:08;;;;;;;2.08;1.13;;;;;;;;;;5059043;28;20024;-41
2021/05/12 08:23:34;;;;;;;2.92;1.48;;;;;;;;;;5063345;28;20553;-40
2021/05/12 08:25:59;;;;;;;8.80;2.55;;;;;;;;;;5059623;28;20033;-50
2021/05/12 08:28:25;;;;;;;3.72;2.45;;;;;;;;;;5063255;28;20642;-49
2021/05/12 08:30:51;;;;;;;5.93;1.90;;;;;;;;;;5063033;28;20024;-49
2021/05/12 08:33:17;;;;;;;8.93;0.82;;;;;;;;;;5061949;28;20055;-51
2021/05/12 08:35:43;;;;;;;4.75;1.45;;;;;;;;;;5060952;28;20047;-48
2021/05/12 08:38:09;;;;;;;2.45;0.75;;;;;;;;;;5061719;28;20040;-46
2021/05/12 08:40:35;;;;;;;7.55;1.23;;;;;;;;;;5062818;28;20040;-53
2021/05/12 08:43:03;;;;;;;3.67;1.17;;;;;;;;;;5028998;28;20032;-48
2021/05/12 08:45:29;;;;;;;1.55;0.93;;;;;;;;;;5059379;28;20024;-50
2021/05/12 08:47:55;;;;;;;4.95;2.38;;;;;;;;;;5060745;28;20047;-47
2021/05/12 08:50:21;;;;;;;3.00;1.52;;;;;;;;;;5058338;28;20040;-46
2021/05/12 08:52:48;;;;;;;8.63;2.33;;;;;;;;;;5061543;28;20059;-48
2021/05/12 08:55:14;;;;;;;2.63;0.93;;;;;;;;;;5061889;28;20064;-49
2021/05/12 08:57:39;;;;;;;11.48;6.40;;;;;;;;;;5054534;28;20064;-51
2021/05/12 09:00:05;;;;;;;5.95;2.78;;;;;;;;;;5067602;28;20024;-49
2021/05/12 09:02:31;;;;;;;3.92;1.08;;;;;;;;;;5050638;28;20044;-50
2021/05/12 09:04:56;;;;;;;8.38;1.60;;;;;;;;;;5064586;28;20775;-50
2021/05/12 09:07:23;;;;;;;2.40;1.02;;;;;;;;;;5060896;28;20555;-48
2021/05/12 09:09:49;;;;;;;4.00;0.93;;;;;;;;;;5063741;28;20060;-48
2021/05/12 09:12:15;;;;;;;1.70;0.65;;;;;;;;;;5064719;28;20044;-51
2021/05/12 09:14:40;;;;;;;3.00;0.80;;;;;;;;;;5065237;28;20066;-50
2021/05/12 09:17:05;;;;;;;2.47;0.80;;;;;;;;;;5065425;28;20040;-53
2021/05/12 09:19:31;;;;;;;1.70;0.50;;;;;;;;;;5062768;28;20044;-48
2021/05/12 09:21:57;;;;;;;0.90;0.38;;;;;;;;;;5058114;28;20059;-44
2021/05/12 09:24:28;;;;;;;1.13;0.60;;;;;;;;;;5058346;28;20089;-48
2021/05/12 09:26:55;;;;;;;0.55;0.28;;;;;;;;;;5061404;28;20075;-46
2021/05/12 09:29:25;;;;;;;1.98;0.47;;;;;;;;;;5058109;28;20036;-45
2021/05/12 09:31:51;;;;;;;7.68;1.10;;;;;;;;;;5062254;28;20132;-45
2021/05/12 09:34:16;;;;;;;0.60;0.20;;;;;;;;;;5061280;28;20139;-40
2021/05/12 09:36:41;;;;;;;2.83;0.90;;;;;;;;;;5065085;28;20723;-42
2021/05/12 09:39:14;;;;;;;0.80;0.30;;;;;;;;;;5069299;28;20040;-40
2021/05/12 09:41:40;;;;;;;1.42;0.65;;;;;;;;;;5068837;28;20082;-40
2021/05/12 09:44:07;;;;;;;13.10;0.75;;;;;;;;;;5072501;28;20031;-41
2021/05/12 09:46:33;;;;;;;1.33;0.70;;;;;;;;;;5070858;28;20029;-45
2021/05/12 09:48:58;;;;;;;2.67;0.50;;;;;;;;;;5070756;28;20103;-45
2021/05/12 09:51:24;;;;;;;1.38;0.80;;;;;;;;;;5070349;28;20844;-51
2021/05/12 09:53:59;;;;;;;3.67;0.47;;;;;;;;;;5066879;28;20085;-45
2021/05/12 09:56:56;;;;;;;3.90;0.63;;;;;;;;;;5061867;28;20040;-45
2021/05/12 09:59:23;;;;;;;3.10;1.45;;;;;;;;;;5052602;28;20126;-43
2021/05/12 10:01:53;;;;;;;0.80;0.55;;;;;;;;;;5057709;28;20028;-47
2021/05/12 10:04:31;;;;;;;0.57;0.10;;;;;;;;;;5056120;28;20041;-43
2021/05/12 10:06:57;;;;;;;5.40;0.90;;;;;;;;;;5057361;28;20083;-47
2021/05/12 10:09:31;;;;;;;13.80;0.63;;;;;;;;;;5054833;28;20493;-46
2021/05/12 10:12:14;;;;;;;1.98;0.68;;;;;;;;;;5058019;28;20474;-48
2021/05/12 10:14:41;;;;;;;0.47;0.20;;;;;;;;;;5057913;28;20040;-44
2021/05/12 10:17:08;;;;;;;12.60;2.20;;;;;;;;;;5057117;28;20115;-48
2021/05/12 10:19:34;;;;;;;15.85;0.80;;;;;;;;;;5061398;28;20024;-48
2021/05/12 10:22:00;;;;;;;8.20;1.55;;;;;;;;;;5060153;28;20548;-46
2021/05/12 10:24:26;;;;;;;2.92;1.25;;;;;;;;;;5055970;28;20045;-43
2021/05/12 10:26:51;;;;;;;2.88;0.95;;;;;;;;;;5063301;28;20044;-48
2021/05/12 10:29:18;;;;;;;3.00;0.30;;;;;;;;;;5064118;28;20442;-46
2021/05/12 10:31:44;;;;;;;12.75;1.38;;;;;;;;;;5062962;28;20040;-49
2021/05/12 10:34:09;;;;;;;3.10;0.52;;;;;;;;;;5060529;28;20781;-49
2021/05/12 10:36:34;;;;;;;1.60;0.65;;;;;;;;;;5050161;28;20485;-47
2021/05/12 10:39:03;;;;;;;7.07;1.63;;;;;;;;;;5058915;28;20572;-46
2021/05/12 10:41:36;;;;;;;0.20;0.10;;;;;;;;;;5053397;28;20406;-48
2021/05/12 10:44:08;;;;;;;1.30;0.57;;;;;;;;;;5061359;28;20117;-48
2021/05/12 10:46:44;;;;;;;1.67;1.00;;;;;;;;;;5058983;28;20056;-47
2021/05/12 10:49:10;;;;;;;0.88;0.60;;;;;;;;;;5060579;28;20043;-49
2021/05/12 10:51:45;;;;;;;2.20;0.10;;;;;;;;;;5057982;28;20036;-44
2021/05/12 10:54:11;;;;;;;4.88;0.90;;;;;;;;;;5060753;28;20037;-49
2021/05/12 10:56:38;;;;;;;2.15;0.80;;;;;;;;;;5060773;28;20090;-45
2021/05/12 10:59:05;;;;;;;6.13;0.82;;;;;;;;;;5069006;28;20085;-47
2021/05/12 11:01:43;;;;;;;5.30;0.85;;;;;;;;;;5063947;28;20032;-47
2021/05/12 11:04:08;;;;;;;3.42;1.40;;;;;;;;;;5066660;28;20075;-46
2021/05/12 11:06:39;;;;;;;1.63;0.63;;;;;;;;;;5062242;28;20052;-45
2021/05/12 11:09:06;;;;;;;3.92;0.85;;;;;;;;;;5062822;28;20542;-46
2021/05/12 11:11:32;;;;;;;1.58;0.77;;;;;;;;;;5067942;28;20560;-49
2021/05/12 11:14:16;;;;;;;1.80;0.73;;;;;;;;;;5062937;28;20036;-45
2021/05/12 11:17:00;;;;;;;2.80;1.27;;;;;;;;;;5067341;28;20032;-46
2021/05/12 11:19:45;;;;;;;3.92;1.27;;;;;;;;;;5059372;28;20050;-47
2021/05/12 11:22:32;;;;;;;8.35;1.60;;;;;;;;;;5058384;28;20101;-45
2021/05/12 11:32:32;;;;;;;2.38;0.60;;;;;;;;;;5066763;28;20043;-44
2021/05/12 11:34:58;;;;;;;6.10;1.25;;;;;;;;;;5068610;28;20032;-46
2021/05/12 11:37:25;;;;;;;0.52;0.28;;;;;;;;;;5061260;28;20042;-48
2021/05/12 11:39:52;;;;;;;2.33;1.00;;;;;;;;;;5046568;28;20816;-45
2021/05/12 11:42:31;;;;;;;2.25;0.70;;;;;;;;;;5066144;28;20029;-46
2021/05/12 11:45:16;;;;;;;16.52;1.33;;;;;;;;;;5058938;28;20119;-43
2021/05/12 11:47:44;;;;;;;1.00;0.50;;;;;;;;;;5057927;28;20052;-48
2021/05/12 11:50:20;;;;;;;4.28;1.15;;;;;;;;;;5057091;28;20028;-47
2021/05/12 11:52:45;;;;;;;10.18;1.70;;;;;;;;;;5067456;28;20102;-49
2021/05/12 11:55:11;;;;;;;5.43;0.77;;;;;;;;;;5066835;28;20032;-46
2021/05/12 11:57:36;;;;;;;6.50;1.45;;;;;;;;;;5068567;28;20406;-45
2021/05/12 12:00:06;;;;;;;2.35;0.68;;;;;;;;;;5063853;28;20543;-43
2021/05/12 12:02:32;;;;;;;3.03;0.82;;;;;;;;;;5060664;28;20040;-45
2021/05/12 12:05:04;;;;;;;2.90;1.85;;;;;;;;;;5062341;28;20052;-46
2021/05/12 12:07:31;;;;;;;3.60;0.68;;;;;;;;;;5062489;28;20050;-48
2021/05/12 12:10:03;;;;;;;5.25;0.98;;;;;;;;;;5063454;28;20043;-47
2021/05/12 12:12:28;;;;;;;1.10;0.70;;;;;;;;;;5055666;28;20040;-47
2021/05/12 12:15:03;;;;;;;32.60;2.53;;;;;;;;;;5063397;28;20028;-44
2021/05/12 12:17:28;;;;;;;4.47;1.65;;;;;;;;;;5060527;28;20040;-47
2021/05/12 12:19:58;;;;;;;1.50;0.73;;;;;;;;;;5061938;28;20029;-46
2021/05/12 12:22:23;;;;;;;2.23;0.77;;;;;;;;;;5061022;28;20035;-44
2021/05/12 12:24:49;;;;;;;1.17;0.65;;;;;;;;;;5061210;28;20277;-44
2021/05/12 12:27:18;;;;;;;11.30;1.55;;;;;;;;;;5064258;28;20481;-45
2021/05/12 12:29:46;;;;;;;9.63;4.05;;;;;;;;;;5064044;28;20525;-44
2021/05/12 12:32:12;;;;;;;3.53;1.48;;;;;;;;;;5063011;28;20025;-46
2021/05/12 12:34:39;;;;;;;5.72;1.38;;;;;;;;;;5064107;28;20021;-44
2021/05/12 12:37:12;;;;;;;17.58;1.77;;;;;;;;;;5063523;28;20499;-46
2021/05/12 12:39:44;;;;;;;5.70;1.17;;;;;;;;;;5066527;28;20060;-46
2021/05/12 12:42:09;;;;;;;5.45;1.08;;;;;;;;;;5063513;28;20028;-47
2021/05/12 12:44:36;;;;;;;8.63;2.08;;;;;;;;;;5065148;28;20528;-45
2021/05/12 12:47:02;;;;;;;7.00;2.53;;;;;;;;;;5065015;28;20037;-49
2021/05/12 12:49:44;;;;;;;4.10;1.58;;;;;;;;;;5065620;28;20040;-47
2021/05/12 12:52:14;;;;;;;6.90;2.40;;;;;;;;;;5063090;28;20040;-45
2021/05/12 12:57:15;;;;;;;9.63;2.17;;;;;;;;;;5063468;28;20113;-47
2021/05/12 12:59:59;;;;;;;3.70;1.90;;;;;;;;;;5060330;28;20039;-45
2021/05/12 13:02:24;;;;;;;2.13;0.88;;;;;;;;;;5063779;28;20037;-43
2021/05/12 13:05:08;;;;;;;4.15;1.38;;;;;;;;;;5065395;28;20543;-45
2021/05/12 13:07:33;;;;;;;1.20;0.68;;;;;;;;;;5061797;28;20119;-48
2021/05/12 13:10:18;;;;;;;2.17;1.25;;;;;;;;;;5064686;28;20111;-45
2021/05/12 13:12:45;;;;;;;2.75;1.92;;;;;;;;;;5066421;28;20036;-47
2021/05/12 13:15:18;;;;;;;3.53;1.60;;;;;;;;;;5066028;28;20343;-45
2021/05/12 13:17:51;;;;;;;2.80;1.50;;;;;;;;;;5065335;28;20044;-46
2021/05/12 13:20:20;;;;;;;4.90;1.20;;;;;;;;;;5061506;28;20471;-45
2021/05/12 13:22:58;;;;;;;1.77;0.93;;;;;;;;;;5063841;28;20041;-44
2021/05/12 13:25:23;;;;;;;5.10;0.82;;;;;;;;;;5062108;28;20049;-44
2021/05/12 13:27:49;;;;;;;1.08;0.60;;;;;;;;;;5064951;28;20404;-48
2021/05/12 13:30:14;;;;;;;4.10;1.80;;;;;;;;;;5063267;28;20127;-45
2021/05/12 13:32:39;;;;;;;3.25;1.30;;;;;;;;;;5062041;28;20179;-43
2021/05/12 13:35:05;;;;;;;14.38;2.55;;;;;;;;;;5062096;28;20028;-43
2021/05/12 13:37:30;;;;;;;19.90;10.35;;;;;;;;;;5060939;28;20045;-44
2021/05/12 13:39:55;;;;;;;4.82;2.28;;;;;;;;;;5062067;28;20024;-45
2021/05/12 13:42:21;;;;;;;10.27;4.15;;;;;;;;;;5067829;28;20074;-45
2021/05/12 13:44:46;;;;;;;17.08;4.75;;;;;;;;;;5066718;28;20028;-49
2021/05/12 13:47:11;;;;;;;6.43;2.65;;;;;;;;;;5061659;28;20354;-43
2021/05/12 13:49:37;;;;;;;4.70;1.13;;;;;;;;;;5066576;28;20036;-47
2021/05/12 13:52:06;;;;;;;4.22;1.83;;;;;;;;;;5069826;28;20059;-39
2021/05/12 13:54:37;;;;;;;4.18;1.50;;;;;;;;;;5071103;28;20048;-46
2021/05/12 13:57:12;;;;;;;12.25;8.73;;;;;;;;;;5064593;28;20037;-44
2021/05/12 14:04:43;;;;;;;7.38;1.75;;;;;;;;;;5064217;28;20025;-47
2021/05/12 14:07:09;;;;;;;10.65;6.07;;;;;;;;;;5061587;28;20963;-46
2021/05/12 14:09:38;;;;;;;8.75;3.13;;;;;;;;;;5060003;28;20473;-46
2021/05/12 14:12:09;;;;;;;4.90;2.33;;;;;;;;;;5067561;28;20033;-45
2021/05/12 14:15:00;;;;;;;7.65;3.42;;;;;;;;;;5064383;28;20037;-44
2021/05/12 14:17:29;;;;;;;26.52;4.15;;;;;;;;;;5068078;28;20078;-44
2021/05/12 14:19:58;;;;;;;3.13;2.33;;;;;;;;;;5061141;28;20074;-43
2021/05/12 14:22:25;;;;;;;4.22;2.85;;;;;;;;;;5067161;28;20062;-45
2021/05/12 14:24:50;;;;;;;7.82;2.45;;;;;;;;;;5066096;28;20052;-47
2021/05/12 14:27:21;;;;;;;8.30;4.25;;;;;;;;;;5061904;28;20559;-46
2021/05/12 14:29:48;;;;;;;4.90;2.20;;;;;;;;;;5055144;28;20039;-44
2021/05/12 14:32:13;;;;;;;10.80;2.42;;;;;;;;;;5059794;28;20063;-49
2021/05/12 14:34:39;;;;;;;7.68;2.33;;;;;;;;;;5063313;28;20485;-46
2021/05/12 14:37:05;;;;;;;10.85;2.47;;;;;;;;;;5058730;28;20040;-42
2021/05/12 14:39:34;;;;;;;3.05;1.10;;;;;;;;;;5060739;28;20780;-45
2021/05/12 14:42:05;;;;;;;12.07;2.80;;;;;;;;;;5064437;28;20462;-42
2021/05/12 14:44:30;;;;;;;3.53;1.85;;;;;;;;;;5063440;28;20111;-46
2021/05/12 14:46:56;;;;;;;2.05;1.00;;;;;;;;;;5064743;28;20161;-43
2021/05/12 14:49:23;;;;;;;1.52;0.88;;;;;;;;;;5065085;28;20033;-42
2021/05/12 14:52:06;;;;;;;7.55;1.55;;;;;;;;;;5062156;28;20473;-44
2021/05/12 14:54:37;;;;;;;5.15;1.20;;;;;;;;;;5061528;28;20052;-46
2021/05/12 14:59:52;;;;;;;2.58;1.08;;;;;;;;;;5061802;28;20532;-45